Time;durP1;ratioP1;P1;durP2;ratioP2;P2;SDS_P1;SDS_P2;PMS_P1;PMS_P2;Temp;Humidity;BMP_temperature;BMP_pressure;BME280_temperature;BME280_humidity;BME280_pressure;Samples;Min_cycle;Max_cycle;Signal;HPM_P1;HPM_P2
2021/06/14 00:00:42;;;;;;;3.50;3.20;;;15.50;91.80;;;;;;5002399;28;20846;-62
2021/06/14 00:03:08;;;;;;;4.37;3.20;;;15.60;93.30;;;;;;4991854;28;20176;-62
2021/06/14 00:05:38;;;;;;;3.17;2.90;;;15.40;92.50;;;;;;5006059;28;20213;-63
2021/06/14 00:08:11;;;;;;;4.55;3.47;;;15.50;92.10;;;;;;4990488;28;20211;-61
2021/06/14 00:10:37;;;;;;;3.90;3.58;;;15.30;92.30;;;;;;4995781;28;20183;-62
2021/06/14 00:13:05;;;;;;;4.40;3.30;;;15.50;92.60;;;;;;4999643;28;20190;-62
2021/06/14 00:15:31;;;;;;;3.97;3.38;;;15.40;92.60;;;;;;4991645;28;20794;-61
2021/06/14 00:17:57;;;;;;;3.08;2.88;;;15.30;92.70;;;;;;4990098;28;20277;-62
2021/06/14 00:20:24;;;;;;;4.32;3.35;;;15.20;92.90;;;;;;4997845;28;20318;-62
2021/06/14 00:22:54;;;;;;;3.92;3.53;;;15.00;93.00;;;;;;4990275;28;20246;-62
2021/06/14 00:25:23;;;;;;;5.20;3.40;;;15.00;93.60;;;;;;5002550;28;20217;-64
2021/06/14 00:27:49;;;;;;;5.90;3.40;;;15.20;93.80;;;;;;4999250;28;20696;-62
2021/06/14 00:30:26;;;;;;;4.60;3.15;;;15.10;94.10;;;;;;4995474;28;20191;-60
2021/06/14 00:32:52;;;;;;;4.03;3.55;;;15.10;94.00;;;;;;4998815;28;20201;-60
2021/06/14 00:35:17;;;;;;;3.77;3.40;;;15.00;94.00;;;;;;4990331;28;20283;-60
2021/06/14 00:37:44;;;;;;;4.50;3.50;;;14.80;93.90;;;;;;4992102;28;20498;-63
2021/06/14 00:40:10;;;;;;;4.03;3.70;;;14.90;94.30;;;;;;5001810;28;20183;-62
2021/06/14 00:42:35;;;;;;;3.42;3.13;;;14.60;94.30;;;;;;5000925;28;20222;-62
2021/06/14 00:45:05;;;;;;;3.80;3.17;;;15.00;94.60;;;;;;4991726;28;20218;-62
2021/06/14 00:47:30;;;;;;;3.00;2.80;;;14.90;94.90;;;;;;5020452;28;20688;-64
2021/06/14 00:49:56;;;;;;;4.30;3.20;;;15.00;95.00;;;;;;4999922;28;20183;-65
2021/06/14 00:52:22;;;;;;;4.73;3.57;;;14.60;95.10;;;;;;4995939;28;20237;-62
2021/06/14 00:54:47;;;;;;;3.60;3.10;;;14.70;95.30;;;;;;4994586;28;20200;-61
2021/06/14 00:57:14;;;;;;;5.70;3.17;;;14.70;95.40;;;;;;5003382;28;20214;-62
2021/06/14 00:59:40;;;;;;;5.57;3.47;;;14.60;95.40;;;;;;4992786;28;20187;-62
2021/06/14 01:02:05;;;;;;;3.73;3.30;;;14.50;96.00;;;;;;4998184;28;20750;-62
2021/06/14 01:04:31;;;;;;;4.07;3.67;;;14.80;96.60;;;;;;4990627;28;20188;-63
2021/06/14 01:06:57;;;;;;;3.67;3.27;;;14.70;96.20;;;;;;5000946;28;20217;-64
2021/06/14 01:09:22;;;;;;;3.40;3.10;;;14.40;95.90;;;;;;5001161;28;20212;-62
2021/06/14 01:11:50;;;;;;;3.53;3.23;;;14.60;96.20;;;;;;4992867;28;20191;-62
2021/06/14 01:14:44;;;;;;;3.72;3.10;;;14.40;96.30;;;;;;5000174;28;20191;-63
2021/06/14 01:17:23;;;;;;;3.70;3.40;;;14.50;96.20;;;;;;4989330;28;20575;-62
2021/06/14 01:20:30;;;;;;;4.97;3.85;;;14.60;96.50;;;;;;5002101;28;20731;-63
2021/06/14 01:23:21;;;;;;;4.03;3.35;;;14.50;96.50;;;;;;5005108;28;20203;-62
2021/06/14 01:26:02;;;;;;;4.68;3.33;;;14.40;97.00;;;;;;4995838;28;20189;-64
2021/06/14 01:28:30;;;;;;;4.13;3.60;;;14.30;97.20;;;;;;5002322;28;20647;-62
2021/06/14 01:30:57;;;;;;;4.10;3.65;;;14.30;97.50;;;;;;4995774;28;20210;-62
2021/06/14 01:33:26;;;;;;;3.63;3.33;;;14.30;97.70;;;;;;4992234;28;20200;-62
2021/06/14 01:36:16;;;;;;;4.10;3.50;;;14.20;97.80;;;;;;4998677;28;20190;-65
2021/06/14 01:38:44;;;;;;;5.22;3.50;;;14.20;97.70;;;;;;4989572;28;20199;-64
2021/06/14 01:41:11;;;;;;;4.45;3.45;;;14.30;97.90;;;;;;5002212;28;20199;-60
2021/06/14 01:43:40;;;;;;;5.20;3.63;;;13.90;97.80;;;;;;5010441;28;20187;-60
2021/06/14 01:46:12;;;;;;;3.53;3.10;;;14.10;98.30;;;;;;4999124;28;20339;-61
2021/06/14 01:48:39;;;;;;;3.35;3.05;;;14.10;98.20;;;;;;4992427;28;20338;-61
2021/06/14 01:51:08;;;;;;;3.65;3.35;;;14.30;98.50;;;;;;4993341;28;20187;-60
2021/06/14 01:53:34;;;;;;;5.65;3.22;;;14.10;98.40;;;;;;4997105;28;20187;-62
2021/06/14 01:56:01;;;;;;;3.80;3.40;;;14.10;98.50;;;;;;4992807;28;20202;-65
2021/06/14 01:58:30;;;;;;;4.30;3.60;;;14.20;98.90;;;;;;5002666;28;20539;-62
2021/06/14 02:00:56;;;;;;;4.70;3.55;;;14.10;99.10;;;;;;4990211;28;20251;-64
2021/06/14 02:03:23;;;;;;;5.97;3.47;;;14.10;99.90;;;;;;4991425;28;20195;-67
2021/06/14 02:05:49;;;;;;;4.70;3.35;;;14.00;99.90;;;;;;4996538;28;20184;-63
2021/06/14 02:08:17;;;;;;;3.78;3.45;;;13.90;99.70;;;;;;4991387;28;20210;-62
2021/06/14 02:10:44;;;;;;;4.07;3.28;;;13.90;99.80;;;;;;5016188;28;20187;-62
2021/06/14 02:13:12;;;;;;;4.43;3.45;;;13.90;99.70;;;;;;4997644;28;20238;-62
2021/06/14 02:15:37;;;;;;;4.07;3.67;;;13.90;99.60;;;;;;5004684;28;20199;-62
2021/06/14 02:18:07;;;;;;;3.73;3.27;;;14.00;99.60;;;;;;4997494;28;20207;-62
2021/06/14 02:20:33;;;;;;;3.92;3.63;;;13.90;99.70;;;;;;4995118;28;20742;-65
2021/06/14 02:22:59;;;;;;;3.90;3.60;;;13.80;99.90;;;;;;4991296;28;20196;-62
2021/06/14 02:25:25;;;;;;;4.68;3.42;;;13.70;99.90;;;;;;4999273;28;20187;-62
2021/06/14 02:27:51;;;;;;;4.50;3.60;;;13.70;99.90;;;;;;4995767;28;20525;-61
2021/06/14 02:30:25;;;;;;;3.72;3.42;;;13.80;99.90;;;;;;4991833;28;20191;-62
2021/06/14 02:32:51;;;;;;;5.82;3.60;;;13.90;99.90;;;;;;5016137;28;20192;-62
2021/06/14 02:35:19;;;;;;;4.80;4.38;;;13.70;99.90;;;;;;4999768;28;20566;-62
2021/06/14 02:37:48;;;;;;;3.95;3.40;;;13.60;99.90;;;;;;4999160;28;20229;-64
2021/06/14 02:40:16;;;;;;;4.38;3.22;;;13.70;99.90;;;;;;4991812;28;20190;-63
2021/06/14 02:42:45;;;;;;;5.40;3.90;;;13.50;99.90;;;;;;4992456;28;20306;-64
2021/06/14 02:45:11;;;;;;;4.15;3.75;;;13.60;99.90;;;;;;4993406;28;20233;-62
2021/06/14 02:47:38;;;;;;;4.28;3.90;;;13.40;99.90;;;;;;4999990;28;20210;-63
2021/06/14 02:50:07;;;;;;;5.93;4.47;;;13.60;99.90;;;;;;4992067;28;20649;-63
2021/06/14 02:52:34;;;;;;;4.38;3.70;;;13.50;99.90;;;;;;5004881;28;20191;-63
2021/06/14 02:55:17;;;;;;;4.30;3.40;;;13.40;99.90;;;;;;5000678;28;20195;-62
2021/06/14 02:57:53;;;;;;;4.93;3.92;;;13.60;99.90;;;;;;4993674;28;20300;-63
2021/06/14 03:00:21;;;;;;;4.63;4.15;;;13.40;99.90;;;;;;5002347;28;20190;-65
2021/06/14 03:02:48;;;;;;;4.22;3.90;;;13.60;99.90;;;;;;4992055;28;20210;-64
2021/06/14 03:05:14;;;;;;;5.13;4.05;;;13.50;99.90;;;;;;4992255;28;20287;-62
2021/06/14 03:07:41;;;;;;;8.63;3.40;;;13.30;99.90;;;;;;5002624;28;20211;-65
2021/06/14 03:10:08;;;;;;;5.10;3.75;;;13.50;99.90;;;;;;4995932;28;20215;-64
2021/06/14 03:12:34;;;;;;;3.90;3.50;;;13.40;99.90;;;;;;4999414;28;20712;-62
2021/06/14 03:15:06;;;;;;;4.30;3.90;;;13.40;99.90;;;;;;4997145;28;20290;-64
2021/06/14 03:17:34;;;;;;;4.88;4.03;;;13.30;99.90;;;;;;4990971;28;20461;-63
2021/06/14 03:20:01;;;;;;;4.60;3.63;;;13.30;99.90;;;;;;4998383;28;20192;-62
2021/06/14 03:22:27;;;;;;;4.72;4.03;;;13.40;99.90;;;;;;4992704;28;20653;-65
2021/06/14 03:24:53;;;;;;;4.20;3.80;;;13.30;99.90;;;;;;4998782;28;20294;-60
2021/06/14 03:27:20;;;;;;;4.85;4.20;;;13.30;99.90;;;;;;4991774;28;20269;-61
2021/06/14 03:29:49;;;;;;;4.20;3.80;;;13.50;99.90;;;;;;5004182;28;20190;-61
2021/06/14 03:32:15;;;;;;;5.70;4.30;;;13.10;99.90;;;;;;4989658;28;20191;-62
2021/06/14 03:34:42;;;;;;;6.43;4.70;;;13.40;99.90;;;;;;5004374;28;20187;-62
2021/06/14 03:37:08;;;;;;;6.50;3.90;;;13.30;99.90;;;;;;4996812;28;20235;-63
2021/06/14 03:39:34;;;;;;;5.00;3.95;;;13.50;99.90;;;;;;4993552;28;20219;-64
2021/06/14 03:42:00;;;;;;;4.07;3.78;;;13.20;99.90;;;;;;4997925;28;20687;-63
2021/06/14 03:44:26;;;;;;;7.00;4.10;;;13.10;99.90;;;;;;4992440;28;20215;-63
2021/06/14 03:46:51;;;;;;;4.60;4.00;;;13.20;99.90;;;;;;4992327;28;20441;-62
2021/06/14 03:49:19;;;;;;;4.23;3.93;;;13.20;99.90;;;;;;4996134;28;20274;-61
2021/06/14 03:51:44;;;;;;;6.35;3.85;;;13.40;99.90;;;;;;4986434;28;20187;-62
2021/06/14 03:54:10;;;;;;;4.00;3.60;;;13.10;99.90;;;;;;4986481;28;21102;-64
2021/06/14 03:56:36;;;;;;;5.17;3.80;;;13.20;99.90;;;;;;4990399;28;20211;-62
2021/06/14 03:59:03;;;;;;;5.32;4.28;;;13.40;99.90;;;;;;4992166;28;20554;-64
2021/06/14 04:01:29;;;;;;;4.00;3.60;;;13.30;99.90;;;;;;4987477;28;20258;-64
2021/06/14 04:04:23;;;;;;;5.50;4.18;;;12.90;99.90;;;;;;4984469;28;20187;-63
2021/06/14 04:06:49;;;;;;;4.32;3.92;;;13.10;99.90;;;;;;4984666;28;20212;-58
2021/06/14 04:09:14;;;;;;;4.30;3.90;;;13.40;99.90;;;;;;4984620;28;20500;-58
2021/06/14 04:11:40;;;;;;;5.70;3.90;;;13.20;99.90;;;;;;4984756;28;20191;-58
2021/06/14 04:14:06;;;;;;;4.87;4.00;;;13.30;99.90;;;;;;4985999;28;20576;-58
2021/06/14 04:16:31;;;;;;;4.30;3.80;;;13.20;99.90;;;;;;4984423;28;20553;-58
2021/06/14 04:18:57;;;;;;;4.63;3.63;;;13.50;99.90;;;;;;4999889;28;20663;-57
2021/06/14 04:21:22;;;;;;;5.63;5.10;;;13.50;99.90;;;;;;5000721;28;20210;-57
2021/06/14 04:23:48;;;;;;;5.23;4.63;;;13.40;99.90;;;;;;4991181;28;21004;-57
2021/06/14 04:26:14;;;;;;;5.27;3.80;;;13.60;99.90;;;;;;4994466;28;20809;-58
2021/06/14 04:28:40;;;;;;;4.83;4.30;;;13.40;99.90;;;;;;4991199;28;20187;-57
2021/06/14 04:31:07;;;;;;;6.15;4.32;;;13.70;99.90;;;;;;4981210;28;20506;-59
2021/06/14 04:33:32;;;;;;;4.65;4.25;;;13.70;99.90;;;;;;4985420;28;20880;-60
2021/06/14 04:35:58;;;;;;;6.60;4.10;;;13.80;99.90;;;;;;4984170;28;20205;-58
2021/06/14 04:38:24;;;;;;;4.38;3.75;;;14.00;99.90;;;;;;4985189;28;20191;-58
2021/06/14 04:40:50;;;;;;;6.37;4.43;;;14.10;99.90;;;;;;4988197;28;20278;-63
2021/06/14 04:43:15;;;;;;;5.53;3.70;;;14.00;99.90;;;;;;4988885;28;20581;-62
2021/06/14 04:45:41;;;;;;;4.33;4.00;;;14.30;99.90;;;;;;4987594;28;20218;-63
2021/06/14 04:48:06;;;;;;;5.37;4.20;;;14.10;99.90;;;;;;4981123;28;20202;-62
2021/06/14 04:50:32;;;;;;;4.83;4.30;;;14.30;99.90;;;;;;4987667;28;20681;-62
2021/06/14 04:52:58;;;;;;;5.23;3.73;;;14.40;99.90;;;;;;4996935;28;20188;-64
2021/06/14 04:55:23;;;;;;;12.53;8.27;;;14.30;99.90;;;;;;4987865;28;20264;-63
2021/06/14 04:57:49;;;;;;;5.80;4.20;;;14.30;99.90;;;;;;5004836;28;20211;-62
2021/06/14 05:00:16;;;;;;;8.52;4.45;;;14.60;99.90;;;;;;4988788;28;20199;-62
2021/06/14 05:02:43;;;;;;;4.55;3.95;;;14.90;99.90;;;;;;4980125;28;20288;-63
2021/06/14 05:05:10;;;;;;;7.30;4.93;;;14.90;99.90;;;;;;4988581;28;20824;-62
2021/06/14 05:07:36;;;;;;;4.63;4.22;;;15.10;99.90;;;;;;4988820;28;20223;-63
2021/06/14 05:10:02;;;;;;;4.27;3.87;;;14.90;99.90;;;;;;4992277;28;20206;-62
2021/06/14 05:12:27;;;;;;;5.10;4.50;;;15.10;99.90;;;;;;4991593;28;20601;-62
2021/06/14 05:14:56;;;;;;;5.37;4.20;;;15.20;99.90;;;;;;4990560;28;20819;-62
2021/06/14 05:17:22;;;;;;;4.32;3.92;;;15.30;99.90;;;;;;5003578;28;20337;-62
2021/06/14 05:19:48;;;;;;;4.43;4.03;;;15.60;99.90;;;;;;4987533;28;20210;-62
2021/06/14 05:22:14;;;;;;;5.90;4.53;;;15.50;99.90;;;;;;4996524;28;20361;-62
2021/06/14 05:24:40;;;;;;;4.82;4.40;;;15.50;99.70;;;;;;4990164;28;20458;-62
2021/06/14 05:27:07;;;;;;;5.00;4.50;;;15.50;99.60;;;;;;4982322;28;20238;-62
2021/06/14 05:29:32;;;;;;;6.30;4.00;;;15.80;99.30;;;;;;4988513;28;20198;-63
2021/06/14 05:31:58;;;;;;;5.13;3.93;;;15.70;98.70;;;;;;4989873;28;20187;-62
2021/06/14 05:34:24;;;;;;;7.03;4.57;;;15.70;98.30;;;;;;4988460;28;20695;-59
2021/06/14 05:36:50;;;;;;;7.73;6.10;;;15.90;99.00;;;;;;4990994;28;20210;-59
2021/06/14 05:39:16;;;;;;;5.85;5.28;;;16.20;98.30;;;;;;4987041;28;20447;-59
2021/06/14 05:41:42;;;;;;;6.23;4.93;;;16.40;98.30;;;;;;4991341;28;20284;-59
2021/06/14 05:44:08;;;;;;;4.18;3.78;;;16.60;97.90;;;;;;4986763;28;20234;-59
2021/06/14 05:46:34;;;;;;;5.65;4.15;;;16.70;97.30;;;;;;4983090;28;20204;-63
2021/06/14 05:49:02;;;;;;;5.43;2.80;;;17.00;96.70;;;;;;4984762;28;20180;-67
2021/06/14 05:51:28;;;;;;;4.22;2.95;;;16.80;97.20;;;;;;4983385;28;21033;-61
2021/06/14 05:53:54;;;;;;;3.40;2.85;;;17.20;98.20;;;;;;4997563;28;20199;-60
2021/06/14 05:56:20;;;;;;;3.53;3.23;;;17.50;97.40;;;;;;4982525;28;20215;-61
2021/06/14 05:58:45;;;;;;;4.07;3.60;;;17.80;95.60;;;;;;4990661;28;20217;-63
2021/06/14 06:01:11;;;;;;;4.07;3.67;;;18.10;95.10;;;;;;4988310;28;20224;-59
2021/06/14 06:03:37;;;;;;;3.60;3.27;;;18.10;92.40;;;;;;4987737;28;20230;-61
2021/06/14 06:06:03;;;;;;;4.33;3.90;;;18.20;92.10;;;;;;4986297;28;20180;-60
2021/06/14 06:08:28;;;;;;;5.90;3.40;;;18.30;91.90;;;;;;5004302;28;20270;-59
2021/06/14 06:10:54;;;;;;;3.70;3.40;;;18.30;91.30;;;;;;4993224;28;20442;-60
2021/06/14 06:13:19;;;;;;;4.90;3.63;;;18.40;91.20;;;;;;4992720;28;20282;-60
2021/06/14 06:15:45;;;;;;;3.80;3.40;;;18.40;90.80;;;;;;5003672;28;20183;-59
2021/06/14 06:18:11;;;;;;;3.77;3.47;;;18.50;91.00;;;;;;4990978;28;20207;-59
2021/06/14 06:20:37;;;;;;;5.00;3.30;;;18.60;90.70;;;;;;4989658;28;20607;-62
2021/06/14 06:23:04;;;;;;;3.43;3.13;;;18.70;90.10;;;;;;4992825;28;20183;-62
2021/06/14 06:25:30;;;;;;;3.78;3.38;;;18.70;88.40;;;;;;4989831;28;20187;-60
2021/06/14 06:27:56;;;;;;;4.90;2.97;;;18.80;89.00;;;;;;4994022;28;20590;-59
2021/06/14 06:30:25;;;;;;;4.47;3.10;;;18.80;87.60;;;;;;4988696;28;20453;-59
2021/06/14 06:32:52;;;;;;;3.95;3.55;;;18.90;87.80;;;;;;4998516;28;20193;-59
2021/06/14 06:35:19;;;;;;;7.38;3.55;;;19.00;86.70;;;;;;4990465;28;20598;-58
2021/06/14 06:37:45;;;;;;;5.93;3.10;;;19.00;87.00;;;;;;5002265;28;20595;-59
2021/06/14 06:40:12;;;;;;;3.97;3.20;;;19.10;86.00;;;;;;4992287;28;20183;-59
2021/06/14 06:42:39;;;;;;;4.75;3.00;;;19.20;85.20;;;;;;4990758;28;20684;-61
2021/06/14 06:45:06;;;;;;;4.50;3.55;;;19.40;84.60;;;;;;4989170;28;20198;-60
2021/06/14 06:47:31;;;;;;;3.90;3.28;;;19.50;85.10;;;;;;5011135;28;20205;-60
2021/06/14 06:49:57;;;;;;;6.33;3.40;;;19.60;84.10;;;;;;4990691;28;20517;-61
2021/06/14 06:52:22;;;;;;;4.67;3.80;;;19.80;84.30;;;;;;4996107;28;20214;-60
2021/06/14 06:54:48;;;;;;;3.57;3.27;;;20.00;83.80;;;;;;4983505;28;20270;-61
2021/06/14 06:57:16;;;;;;;4.53;3.33;;;20.20;84.20;;;;;;4989405;28;20207;-61
2021/06/14 06:59:42;;;;;;;4.15;3.20;;;20.50;83.50;;;;;;4988230;28;20249;-61
2021/06/14 07:02:08;;;;;;;3.90;3.50;;;20.80;81.50;;;;;;4994142;28;20215;-61
2021/06/14 07:04:34;;;;;;;4.00;3.60;;;21.60;79.00;;;;;;4989364;28;20333;-61
2021/06/14 07:07:00;;;;;;;5.40;3.50;;;23.30;73.70;;;;;;4998398;28;20459;-61
2021/06/14 07:09:25;;;;;;;3.57;3.27;;;25.10;68.00;;;;;;4989910;28;20191;-62
2021/06/14 07:11:51;;;;;;;3.40;2.80;;;26.80;60.80;;;;;;4992276;28;20969;-59
2021/06/14 07:14:17;;;;;;;4.10;3.40;;;28.90;56.70;;;;;;5002303;28;20250;-59
2021/06/14 07:16:42;;;;;;;3.50;2.93;;;30.50;51.40;;;;;;4984207;28;20211;-59
2021/06/14 07:19:08;;;;;;;4.17;3.00;;;32.30;47.80;;;;;;4982934;28;20282;-59
2021/06/14 07:21:33;;;;;;;3.93;3.10;;;33.90;43.40;;;;;;4986804;28;20218;-59
2021/06/14 07:24:00;;;;;;;3.07;2.60;;;34.30;40.60;;;;;;4982093;28;20188;-61
2021/06/14 07:26:26;;;;;;;5.40;3.80;;;34.10;40.00;;;;;;4983696;28;20590;-63
2021/06/14 07:28:52;;;;;;;5.53;3.40;;;34.30;38.30;;;;;;4986987;28;20429;-62
2021/06/14 07:31:17;;;;;;;4.60;3.10;;;35.30;37.50;;;;;;4984163;28;20832;-60
2021/06/14 07:33:44;;;;;;;4.43;3.27;;;35.20;36.90;;;;;;4987436;28;20246;-60
2021/06/14 07:36:11;;;;;;;4.50;2.90;;;35.90;36.40;;;;;;4991144;28;20197;-59
2021/06/14 07:38:37;;;;;;;3.33;3.03;;;35.30;36.50;;;;;;4994307;28;20458;-60
2021/06/14 07:41:04;;;;;;;3.20;2.80;;;35.30;35.00;;;;;;4988960;28;20865;-60
2021/06/14 07:43:30;;;;;;;4.73;3.17;;;35.70;34.40;;;;;;4987585;28;20453;-59
2021/06/14 07:45:56;;;;;;;3.43;2.50;;;35.60;34.70;;;;;;5014112;28;20453;-60
2021/06/14 07:48:22;;;;;;;4.13;2.73;;;34.80;34.90;;;;;;4995325;28;20197;-60
2021/06/14 07:50:49;;;;;;;3.30;2.93;;;35.90;35.30;;;;;;4990504;28;20433;-60
2021/06/14 07:53:15;;;;;;;2.97;2.70;;;37.00;32.50;;;;;;4991911;28;20199;-59
2021/06/14 07:55:41;;;;;;;2.80;2.60;;;36.80;32.10;;;;;;4995258;28;20441;-59
2021/06/14 07:58:07;;;;;;;2.80;2.60;;;36.70;32.80;;;;;;4991121;28;20462;-59
2021/06/14 08:00:33;;;;;;;4.40;3.77;;;37.70;31.50;;;;;;4995199;28;20191;-58
2021/06/14 08:02:59;;;;;;;3.83;3.20;;;36.70;32.00;;;;;;4989882;28;20450;-59
2021/06/14 08:05:24;;;;;;;3.70;3.40;;;36.60;31.60;;;;;;5004562;28;20437;-59
2021/06/14 08:07:50;;;;;;;3.30;2.83;;;36.80;31.50;;;;;;4987305;28;20234;-62
2021/06/14 08:10:18;;;;;;;2.63;2.43;;;36.60;31.50;;;;;;4987989;28;20188;-61
2021/06/14 08:12:49;;;;;;;3.20;2.87;;;36.90;31.50;;;;;;4999645;28;20179;-60
2021/06/14 08:15:17;;;;;;;3.73;3.10;;;37.00;31.40;;;;;;4988211;28;20821;-62
2021/06/14 08:17:42;;;;;;;3.53;3.23;;;36.50;31.90;;;;;;4979344;28;20890;-62
2021/06/14 08:20:23;;;;;;;3.50;2.87;;;36.60;31.60;;;;;;4989230;28;20475;-61
2021/06/14 08:25:35;;;;;;;3.97;2.83;;;36.50;31.70;;;;;;4986577;28;20438;-62
2021/06/14 08:28:01;;;;;;;3.73;3.17;;;36.20;32.30;;;;;;4996763;28;20994;-62
2021/06/14 08:30:28;;;;;;;2.93;2.73;;;37.70;31.80;;;;;;4988899;28;20443;-62
2021/06/14 08:32:54;;;;;;;3.80;3.20;;;38.40;31.40;;;;;;4993394;28;20537;-60
2021/06/14 08:35:23;;;;;;;3.20;2.90;;;38.50;30.50;;;;;;4994248;28;20442;-61
2021/06/14 08:37:50;;;;;;;3.63;2.93;;;37.50;30.60;;;;;;4994007;28;20466;-63
2021/06/14 08:40:19;;;;;;;4.13;3.13;;;37.90;30.80;;;;;;4997966;28;20971;-63
2021/06/14 08:42:45;;;;;;;6.03;2.97;;;38.40;30.10;;;;;;4990773;28;20445;-63
2021/06/14 08:45:13;;;;;;;7.43;3.10;;;37.70;29.60;;;;;;4987358;28;20435;-63
2021/06/14 08:47:41;;;;;;;5.83;3.23;;;37.50;30.00;;;;;;5000715;28;20468;-63
2021/06/14 08:50:09;;;;;;;3.00;2.80;;;37.70;30.00;;;;;;4991303;28;21015;-62
2021/06/14 08:52:36;;;;;;;3.00;2.70;;;37.00;29.60;;;;;;4998258;28;20453;-60
2021/06/14 08:55:05;;;;;;;3.97;3.40;;;36.80;30.80;;;;;;4999284;28;20449;-61
2021/06/14 08:57:32;;;;;;;2.60;2.40;;;37.10;30.30;;;;;;4989392;28;20462;-59
2021/06/14 08:59:58;;;;;;;2.90;2.70;;;37.10;30.70;;;;;;4998591;28;20532;-60
2021/06/14 09:02:23;;;;;;;2.97;2.77;;;36.90;30.40;;;;;;4986857;28;20609;-60
2021/06/14 09:04:49;;;;;;;3.30;3.00;;;37.20;30.00;;;;;;4994880;28;20446;-62
2021/06/14 09:07:15;;;;;;;3.07;2.87;;;36.70;30.10;;;;;;5001451;28;20198;-62
2021/06/14 09:09:42;;;;;;;3.40;2.63;;;36.70;30.30;;;;;;4994055;28;20193;-60
2021/06/14 09:12:08;;;;;;;2.90;2.70;;;36.10;29.80;;;;;;4994047;28;20246;-56
2021/06/14 09:14:43;;;;;;;4.10;2.80;;;36.10;30.50;;;;;;4995586;28;20450;-56
2021/06/14 09:17:17;;;;;;;3.83;3.17;;;36.70;29.70;;;;;;5000841;28;20510;-56
2021/06/14 09:19:50;;;;;;;2.83;2.60;;;36.70;29.70;;;;;;4988861;28;20442;-59
2021/06/14 09:22:20;;;;;;;3.03;2.43;;;36.30;29.60;;;;;;5004559;28;20478;-59
2021/06/14 09:24:55;;;;;;;3.87;3.57;;;37.00;29.20;;;;;;4996626;28;20504;-59
2021/06/14 09:27:42;;;;;;;3.20;2.90;;;36.80;28.90;;;;;;4995377;28;20460;-57
2021/06/14 09:30:25;;;;;;;4.13;3.00;;;36.80;29.60;;;;;;4991633;28;20438;-59
2021/06/14 09:33:08;;;;;;;3.83;3.53;;;36.10;30.00;;;;;;5003064;28;20468;-59
2021/06/14 09:35:39;;;;;;;3.63;2.73;;;36.10;29.90;;;;;;4992810;28;20928;-60
2021/06/14 09:38:11;;;;;;;2.93;2.73;;;36.60;29.60;;;;;;4996097;28;20609;-60
2021/06/14 09:40:38;;;;;;;3.40;3.10;;;36.40;28.90;;;;;;5007935;28;20484;-59
2021/06/14 09:43:06;;;;;;;2.70;2.50;;;36.70;29.00;;;;;;5001589;28;20438;-60
2021/06/14 09:45:33;;;;;;;3.37;3.07;;;36.90;29.00;;;;;;5003994;28;20803;-60
2021/06/14 09:47:59;;;;;;;3.17;2.83;;;37.20;29.20;;;;;;4995422;28;20539;-60
2021/06/14 09:50:31;;;;;;;2.90;2.70;;;37.50;28.60;;;;;;5001119;28;21002;-60
2021/06/14 09:53:11;;;;;;;4.80;3.30;;;37.40;28.30;;;;;;4992115;28;20560;-59
2021/06/14 09:55:38;;;;;;;2.80;2.60;;;36.80;29.00;;;;;;5005971;28;20437;-59
2021/06/14 09:58:10;;;;;;;3.10;2.90;;;36.70;29.00;;;;;;4996358;28;20544;-59
2021/06/14 10:00:36;;;;;;;3.20;2.90;;;36.60;29.30;;;;;;5003821;28;20437;-60
2021/06/14 10:03:02;;;;;;;4.13;3.00;;;37.00;29.40;;;;;;5002973;28;20801;-60
2021/06/14 10:05:27;;;;;;;3.03;2.73;;;36.90;29.00;;;;;;4995915;28;20191;-60
2021/06/14 10:07:55;;;;;;;3.00;2.70;;;36.90;28.90;;;;;;4998087;28;20221;-60
2021/06/14 10:10:26;;;;;;;3.57;3.20;;;37.10;28.70;;;;;;4998906;28;20191;-57
2021/06/14 10:12:54;;;;;;;3.43;3.13;;;37.80;27.60;;;;;;5006079;28;20520;-58
2021/06/14 10:15:37;;;;;;;4.47;3.30;;;38.20;28.00;;;;;;4999486;28;20501;-58
2021/06/14 10:18:11;;;;;;;3.57;3.10;;;38.60;27.70;;;;;;5000992;28;20466;-57
2021/06/14 10:20:38;;;;;;;3.10;2.90;;;37.60;27.70;;;;;;5004045;28;20456;-56
2021/06/14 10:23:05;;;;;;;4.50;3.20;;;37.80;28.20;;;;;;5002244;28;20944;-57
2021/06/14 10:25:31;;;;;;;3.17;2.97;;;38.50;28.20;;;;;;4992713;28;20439;-58
2021/06/14 10:27:57;;;;;;;3.10;2.80;;;38.30;27.90;;;;;;4982598;28;20474;-57
2021/06/14 10:30:24;;;;;;;3.10;2.80;;;38.10;28.10;;;;;;5001075;28;20853;-57
2021/06/14 10:32:50;;;;;;;2.60;2.47;;;38.10;28.00;;;;;;4991278;28;20925;-57
2021/06/14 10:35:17;;;;;;;3.53;3.23;;;37.70;28.20;;;;;;5002574;28;20524;-57
2021/06/14 10:37:44;;;;;;;3.07;2.87;;;36.50;28.90;;;;;;4993900;28;20215;-57
2021/06/14 10:40:12;;;;;;;3.40;3.10;;;37.00;28.40;;;;;;4992760;28;20539;-58
2021/06/14 10:42:40;;;;;;;3.90;2.97;;;36.80;28.90;;;;;;5000397;28;20574;-57
2021/06/14 10:45:11;;;;;;;2.63;2.43;;;36.20;29.20;;;;;;5002435;28;20441;-57
2021/06/14 10:47:39;;;;;;;4.50;3.37;;;36.40;29.10;;;;;;5000790;28;20475;-58
2021/06/14 10:50:06;;;;;;;3.87;3.10;;;36.60;29.00;;;;;;5000604;28;20496;-58
2021/06/14 10:52:40;;;;;;;3.67;3.37;;;36.80;29.00;;;;;;4988950;28;20453;-59
2021/06/14 10:55:11;;;;;;;3.20;2.90;;;37.20;28.70;;;;;;4988093;28;20450;-61
2021/06/14 10:57:37;;;;;;;3.03;2.83;;;37.40;28.20;;;;;;4997851;28;20470;-58
2021/06/14 11:00:18;;;;;;;2.67;2.43;;;37.90;26.10;;;;;;4989265;28;21549;-61
2021/06/14 11:03:02;;;;;;;3.30;3.00;;;37.90;26.30;;;;;;4989721;28;20886;-62
2021/06/14 11:05:29;;;;;;;3.17;2.97;;;37.80;27.20;;;;;;4993203;28;20434;-62
2021/06/14 11:07:55;;;;;;;3.10;2.80;;;37.60;27.90;;;;;;4987170;28;20863;-62
2021/06/14 11:10:27;;;;;;;3.20;2.60;;;37.50;27.70;;;;;;4994524;28;20435;-62
2021/06/14 11:13:09;;;;;;;2.93;2.73;;;36.60;28.00;;;;;;4984955;28;20614;-60
2021/06/14 11:15:35;;;;;;;3.83;2.90;;;36.00;28.10;;;;;;4999938;28;20962;-60
2021/06/14 11:18:06;;;;;;;2.77;2.40;;;35.50;28.50;;;;;;4989130;28;20470;-62
2021/06/14 11:20:37;;;;;;;3.50;2.67;;;35.50;28.90;;;;;;4999358;28;20813;-61
2021/06/14 11:23:05;;;;;;;2.70;2.50;;;35.60;28.50;;;;;;4995295;28;20511;-61
2021/06/14 11:25:41;;;;;;;3.03;2.73;;;35.40;28.10;;;;;;4993881;28;20516;-60
2021/06/14 11:28:10;;;;;;;3.50;3.03;;;35.20;27.90;;;;;;5004291;28;20549;-61
2021/06/14 11:30:47;;;;;;;2.60;2.40;;;35.20;28.70;;;;;;4997329;28;20856;-59
2021/06/14 11:33:27;;;;;;;2.60;2.40;;;35.40;28.90;;;;;;4983365;28;20455;-61
2021/06/14 11:35:57;;;;;;;2.50;2.30;;;35.00;29.10;;;;;;4980810;28;20438;-59
2021/06/14 11:38:24;;;;;;;2.70;2.50;;;34.60;29.30;;;;;;4989560;28;20505;-62
2021/06/14 11:40:57;;;;;;;2.60;2.40;;;33.80;29.40;;;;;;4991159;28;20560;-62
2021/06/14 11:43:23;;;;;;;3.27;2.53;;;33.40;30.10;;;;;;4993356;28;20906;-59
2021/06/14 11:45:52;;;;;;;3.03;2.73;;;32.80;30.10;;;;;;4992391;28;20482;-59
2021/06/14 11:48:20;;;;;;;2.80;2.43;;;32.50;30.10;;;;;;4991609;28;21010;-58
2021/06/14 11:50:46;;;;;;;3.40;2.37;;;32.10;31.10;;;;;;4995180;28;20829;-60
2021/06/14 11:53:11;;;;;;;3.03;2.10;;;31.60;30.70;;;;;;4985011;28;20435;-60
2021/06/14 11:55:41;;;;;;;2.60;2.40;;;31.30;30.00;;;;;;4988764;28;20202;-60
2021/06/14 11:58:08;;;;;;;2.77;2.17;;;30.90;31.60;;;;;;5002218;28;20289;-60
2021/06/14 12:00:43;;;;;;;2.00;1.90;;;30.60;30.50;;;;;;4993065;28;20522;-60
2021/06/14 12:03:23;;;;;;;2.90;2.40;;;30.40;31.60;;;;;;4989092;28;20732;-60
2021/06/14 12:05:50;;;;;;;2.73;2.53;;;29.90;32.70;;;;;;4991631;28;20465;-60
2021/06/14 12:08:39;;;;;;;2.53;2.33;;;29.70;33.10;;;;;;4990295;28;20491;-59
2021/06/14 12:11:07;;;;;;;2.70;2.30;;;29.50;34.40;;;;;;4988788;28;20808;-58
2021/06/14 12:13:32;;;;;;;3.07;2.73;;;29.20;33.50;;;;;;4989745;28;20437;-58
2021/06/14 12:15:59;;;;;;;2.70;2.50;;;29.00;36.50;;;;;;4988657;28;20435;-60
2021/06/14 12:18:27;;;;;;;2.60;2.40;;;28.70;35.00;;;;;;4989415;28;20185;-60
2021/06/14 12:20:58;;;;;;;3.07;2.77;;;28.60;36.00;;;;;;4991270;28;20467;-60
2021/06/14 12:23:30;;;;;;;2.60;2.40;;;28.80;36.30;;;;;;4989017;28;20433;-59
2021/06/14 12:25:57;;;;;;;3.13;2.23;;;28.80;35.70;;;;;;5012494;28;20499;-59
2021/06/14 12:28:23;;;;;;;2.00;1.70;;;28.50;33.80;;;;;;4991004;28;20431;-59
2021/06/14 12:30:58;;;;;;;2.13;1.93;;;28.40;33.30;;;;;;4989335;28;20436;-59
2021/06/14 12:33:29;;;;;;;2.33;2.23;;;28.40;33.30;;;;;;4988140;28;20708;-57
2021/06/14 12:35:57;;;;;;;2.90;2.70;;;28.40;35.50;;;;;;4988730;28;20447;-59
2021/06/14 12:38:24;;;;;;;2.50;2.13;;;28.40;36.00;;;;;;4989514;28;20491;-60
2021/06/14 12:40:50;;;;;;;2.50;2.30;;;28.30;35.60;;;;;;4987478;28;21002;-61
2021/06/14 12:43:16;;;;;;;4.80;2.60;;;28.30;36.00;;;;;;4983850;28;20442;-60
2021/06/14 12:45:43;;;;;;;2.00;1.90;;;28.20;36.80;;;;;;4986443;28;20500;-61
2021/06/14 12:48:15;;;;;;;2.57;2.37;;;28.20;36.50;;;;;;4983528;28;20459;-60
2021/06/14 12:50:50;;;;;;;2.70;2.50;;;28.20;36.70;;;;;;4999969;28;20436;-60
2021/06/14 12:53:21;;;;;;;2.83;2.63;;;28.50;37.50;;;;;;4985434;28;21193;-61
2021/06/14 12:55:49;;;;;;;2.50;2.30;;;28.30;36.30;;;;;;4986983;28;20554;-61